Time;durP1;ratioP1;P1;durP2;ratioP2;P2;SDS_P1;SDS_P2;PMS_P1;PMS_P2;Temp;Humidity;BMP_temperature;BMP_pressure;BME280_temperature;BME280_humidity;BME280_pressure;Samples;Min_cycle;Max_cycle;Signal;HPM_P1;HPM_P2
2022/10/15 00:07:34;;;;;;;14.45;8.85;;;12.50;99.90;;;;;;20659421;28;20045;-82
2022/10/15 00:17:35;;;;;;;18.88;9.45;;;12.50;99.90;;;;;;20667224;28;20038;-82
2022/10/15 00:27:37;;;;;;;16.77;8.45;;;12.60;99.90;;;;;;20665956;28;20097;-81
2022/10/15 00:37:38;;;;;;;18.17;10.23;;;12.60;99.90;;;;;;20658694;28;20042;-81
2022/10/15 00:47:43;;;;;;;12.38;7.57;;;12.60;99.90;;;;;;20661431;28;20049;-81
2022/10/15 00:57:48;;;;;;;16.52;9.52;;;12.60;99.90;;;;;;20662287;28;20695;-81
2022/10/15 01:07:49;;;;;;;22.27;11.23;;;12.60;99.90;;;;;;20640387;28;20045;-81
2022/10/15 01:17:58;;;;;;;20.45;11.48;;;12.60;99.90;;;;;;20637655;28;20142;-82
2022/10/15 01:28:33;;;;;;;18.10;11.52;;;12.60;99.90;;;;;;20630240;28;20085;-82
2022/10/15 01:38:55;;;;;;;20.88;11.65;;;12.60;99.90;;;;;;20628553;28;20332;-82
2022/10/15 01:48:57;;;;;;;23.75;12.35;;;12.80;99.90;;;;;;20647026;28;20619;-80
2022/10/15 01:58:59;;;;;;;19.23;11.70;;;12.80;99.90;;;;;;20650272;28;20065;-81
2022/10/15 02:09:15;;;;;;;22.73;11.07;;;12.80;99.90;;;;;;20632332;28;20046;-83
2022/10/15 02:19:40;;;;;;;20.10;11.25;;;12.90;99.90;;;;;;20627971;28;21483;-83
2022/10/15 02:29:44;;;;;;;17.40;10.40;;;12.80;99.90;;;;;;20625117;28;20042;-80
2022/10/15 02:39:45;;;;;;;21.10;12.30;;;12.90;99.90;;;;;;20626354;28;21630;-81
2022/10/15 02:49:46;;;;;;;21.20;10.50;;;12.80;99.90;;;;;;20627533;28;20042;-82
2022/10/15 02:59:47;;;;;;;19.70;11.63;;;12.80;99.90;;;;;;20629398;28;20049;-81
2022/10/15 03:09:48;;;;;;;18.50;10.48;;;12.60;99.90;;;;;;20628339;28;20038;-80
2022/10/15 03:19:49;;;;;;;16.52;9.52;;;12.50;99.90;;;;;;20675647;28;20042;-80
2022/10/15 03:29:50;;;;;;;17.65;10.05;;;12.50;99.90;;;;;;20684005;28;20104;-80
2022/10/15 03:39:51;;;;;;;17.85;11.27;;;12.40;99.90;;;;;;20647746;28;20022;-81
2022/10/15 03:49:55;;;;;;;20.70;9.57;;;12.40;99.90;;;;;;20638052;28;20062;-82
2022/10/15 03:59:56;;;;;;;16.35;9.25;;;12.30;99.90;;;;;;20642849;28;20041;-81
2022/10/15 04:09:57;;;;;;;18.45;10.68;;;12.20;99.90;;;;;;20645994;28;20460;-81
2022/10/15 04:19:58;;;;;;;26.55;11.23;;;12.20;99.90;;;;;;20644041;28;20395;-81
2022/10/15 04:29:59;;;;;;;18.52;11.60;;;12.20;99.90;;;;;;20645475;28;20877;-81
2022/10/15 04:40:01;;;;;;;17.17;10.60;;;12.20;99.90;;;;;;20640850;28;20474;-81
2022/10/15 04:50:02;;;;;;;17.30;11.73;;;12.20;99.90;;;;;;20642584;28;20460;-81
2022/10/15 05:00:04;;;;;;;19.50;12.55;;;12.30;99.90;;;;;;20643976;28;20383;-81
2022/10/15 05:10:06;;;;;;;22.75;11.80;;;12.30;99.90;;;;;;20642325;28;20200;-81
2022/10/15 05:20:07;;;;;;;22.50;12.70;;;12.40;99.90;;;;;;20635706;28;20038;-81
2022/10/15 05:30:10;;;;;;;18.33;11.00;;;12.40;99.90;;;;;;20635232;28;20038;-81
2022/10/15 05:40:11;;;;;;;21.95;9.48;;;12.40;99.90;;;;;;20631557;28;20095;-81
2022/10/15 05:50:13;;;;;;;26.88;15.23;;;12.50;99.90;;;;;;20635765;28;20042;-81
2022/10/15 06:00:15;;;;;;;18.70;12.05;;;12.50;99.90;;;;;;20640530;28;20394;-81
2022/10/15 06:10:16;;;;;;;30.45;16.35;;;12.60;99.90;;;;;;20644011;28;20034;-82
2022/10/15 06:20:17;;;;;;;27.88;14.82;;;12.60;99.90;;;;;;20629576;28;20042;-82
2022/10/15 06:30:18;;;;;;;28.95;15.73;;;12.60;99.90;;;;;;20652921;28;20029;-81
2022/10/15 06:40:22;;;;;;;31.98;16.00;;;12.60;99.90;;;;;;20628382;28;20093;-82
2022/10/15 06:50:23;;;;;;;33.00;18.00;;;12.70;99.90;;;;;;20631956;28;20520;-82
2022/10/15 07:00:24;;;;;;;32.50;16.83;;;12.80;99.90;;;;;;20655831;28;20611;-82
2022/10/15 07:10:26;;;;;;;35.42;17.20;;;12.80;99.90;;;;;;20626613;28;20719;-82
2022/10/15 07:20:29;;;;;;;40.90;17.73;;;12.90;99.90;;;;;;20636243;28;20054;-82
2022/10/15 07:30:31;;;;;;;24.73;13.43;;;13.00;99.90;;;;;;20647478;28;20496;-83
2022/10/15 07:40:32;;;;;;;30.83;15.13;;;13.10;99.90;;;;;;20619310;28;20127;-81
2022/10/15 07:50:33;;;;;;;33.28;15.18;;;13.10;99.90;;;;;;20571098;28;20122;-81
2022/10/15 08:00:34;;;;;;;27.40;13.20;;;13.20;99.90;;;;;;20617597;28;20112;-82
2022/10/15 08:10:36;;;;;;;19.50;8.65;;;13.30;99.90;;;;;;20620729;28;20026;-81
2022/10/15 08:20:37;;;;;;;12.40;7.35;;;13.30;99.90;;;;;;20637368;28;20148;-81
2022/10/15 08:30:39;;;;;;;11.20;6.88;;;13.50;99.90;;;;;;20613250;28;20340;-80
2022/10/15 08:40:41;;;;;;;11.98;6.03;;;13.60;99.90;;;;;;20620861;28;20423;-81
2022/10/15 08:51:02;;;;;;;10.82;6.45;;;14.00;99.90;;;;;;20608500;28;21217;-84
2022/10/15 09:01:11;;;;;;;10.32;4.72;;;14.30;99.90;;;;;;20620059;28;20121;-82
2022/10/15 09:11:44;;;;;;;9.05;4.25;;;14.40;99.90;;;;;;20606076;28;20117;-86
2022/10/15 09:21:50;;;;;;;5.47;2.88;;;14.50;99.90;;;;;;20595236;28;21544;-82
2022/10/15 09:32:12;;;;;;;7.63;4.45;;;14.70;99.90;;;;;;20620533;28;20501;-82
2022/10/15 09:42:30;;;;;;;10.45;3.13;;;14.80;99.90;;;;;;20650109;28;20046;-82
2022/10/15 09:53:00;;;;;;;12.00;4.72;;;14.60;99.90;;;;;;20637471;28;20038;-80
2022/10/15 10:03:12;;;;;;;8.75;3.70;;;14.20;99.90;;;;;;20634553;28;20695;-81
2022/10/15 10:13:39;;;;;;;7.75;4.03;;;14.10;99.90;;;;;;20637014;28;20053;-81
2022/10/15 10:23:40;;;;;;;8.07;5.93;;;14.20;99.90;;;;;;20647741;28;20553;-80
2022/10/15 10:33:41;;;;;;;7.40;5.13;;;14.20;99.90;;;;;;20663176;28;20599;-81
2022/10/15 10:43:53;;;;;;;5.40;3.30;;;14.30;99.90;;;;;;20663733;28;20460;-80
2022/10/15 10:54:03;;;;;;;9.32;3.17;;;14.40;99.90;;;;;;20656816;28;20052;-81
2022/10/15 11:04:13;;;;;;;6.65;3.55;;;14.30;99.90;;;;;;20656198;28;20046;-82
2022/10/15 11:14:33;;;;;;;6.07;3.90;;;14.30;99.90;;;;;;20642327;28;20042;-82
2022/10/15 11:24:59;;;;;;;4.60;2.65;;;14.40;99.90;;;;;;20643668;28;20508;-82
2022/10/15 11:35:18;;;;;;;5.13;3.30;;;14.50;99.90;;;;;;20638647;28;20723;-82
2022/10/15 11:45:36;;;;;;;4.03;2.70;;;14.50;99.90;;;;;;20656242;28;20091;-82
2022/10/15 11:55:45;;;;;;;3.83;2.10;;;14.60;99.90;;;;;;20667441;28;20712;-82
2022/10/15 12:05:54;;;;;;;4.85;2.55;;;14.70;99.90;;;;;;20663859;28;20050;-81
2022/10/15 12:16:23;;;;;;;4.82;2.45;;;14.80;99.90;;;;;;20667235;28;20034;-81
2022/10/15 12:26:24;;;;;;;4.72;2.78;;;14.90;99.90;;;;;;20703807;28;20049;-80
2022/10/15 12:36:28;;;;;;;5.70;2.72;;;15.10;99.90;;;;;;20666421;28;20065;-81
2022/10/15 12:46:37;;;;;;;6.15;3.55;;;15.10;99.90;;;;;;20655555;28;20049;-81
2022/10/15 12:56:40;;;;;;;5.47;2.67;;;15.30;99.90;;;;;;20639310;28;20622;-84
2022/10/15 13:06:44;;;;;;;6.95;2.53;;;15.50;99.90;;;;;;20638332;28;20038;-82
2022/10/15 13:16:47;;;;;;;6.65;3.15;;;15.60;99.90;;;;;;20644408;28;20151;-82
2022/10/15 13:26:49;;;;;;;3.22;1.85;;;15.70;99.90;;;;;;20656540;28;20041;-82
2022/10/15 13:36:50;;;;;;;2.47;1.17;;;15.90;99.90;;;;;;20645096;28;20567;-81
2022/10/15 13:46:51;;;;;;;1.38;0.70;;;15.90;99.90;;;;;;20635554;28;20113;-83
2022/10/15 13:56:56;;;;;;;1.50;0.85;;;16.00;99.90;;;;;;20639387;28;20042;-80
2022/10/15 14:07:01;;;;;;;1.02;0.43;;;16.60;99.90;;;;;;20627966;28;20104;-80
2022/10/15 14:17:06;;;;;;;0.82;0.40;;;17.30;99.90;;;;;;20639573;28;20113;-81
2022/10/15 14:27:14;;;;;;;0.17;0.08;;;17.70;99.90;;;;;;20651608;28;20041;-83
2022/10/15 14:37:40;;;;;;;0.50;0.10;;;17.30;99.90;;;;;;20637258;28;20030;-79
2022/10/15 14:47:46;;;;;;;0.38;0.00;;;17.10;99.90;;;;;;20632867;28;21039;-80
2022/10/15 14:57:51;;;;;;;0.40;0.17;;;16.70;99.90;;;;;;20644886;28;20045;-79
2022/10/15 15:07:53;;;;;;;1.65;0.57;;;16.20;99.90;;;;;;20633122;28;20120;-81
2022/10/15 15:17:54;;;;;;;0.52;0.10;;;16.00;99.90;;;;;;20650765;28;20088;-81
2022/10/15 15:27:55;;;;;;;0.95;0.20;;;15.70;99.90;;;;;;20627445;28;20034;-84
2022/10/15 15:37:56;;;;;;;2.20;0.20;;;15.70;99.90;;;;;;20629349;28;20527;-83
2022/10/15 15:48:00;;;;;;;0.77;0.20;;;15.40;99.90;;;;;;20632172;28;20146;-81
2022/10/15 15:58:02;;;;;;;1.17;0.25;;;15.40;99.90;;;;;;20626465;28;20038;-81
2022/10/15 16:08:03;;;;;;;0.98;0.30;;;15.20;99.90;;;;;;20646826;28;20042;-82
2022/10/15 16:18:04;;;;;;;0.30;0.20;;;15.10;99.90;;;;;;20629591;28;20034;-82
2022/10/15 16:28:05;;;;;;;2.08;0.38;;;15.00;99.90;;;;;;20648668;28;20038;-82
2022/10/15 16:38:07;;;;;;;2.55;0.68;;;14.70;99.90;;;;;;20640249;28;20034;-82
2022/10/15 16:48:08;;;;;;;4.80;0.70;;;14.50;99.90;;;;;;20642868;28;20035;-82
2022/10/15 16:58:09;;;;;;;1.70;0.45;;;14.40;99.90;;;;;;20640956;28;20038;-82
2022/10/15 17:08:10;;;;;;;1.15;0.57;;;14.20;99.90;;;;;;20662925;28;20060;-82
2022/10/15 17:18:11;;;;;;;1.10;0.38;;;14.00;99.90;;;;;;20638994;28;20407;-82
2022/10/15 17:28:12;;;;;;;1.38;0.68;;;13.90;99.90;;;;;;20639514;28;20038;-82
2022/10/15 17:38:13;;;;;;;1.45;0.50;;;13.80;99.90;;;;;;20628880;28;20049;-82
2022/10/15 17:48:14;;;;;;;1.60;0.60;;;13.80;99.90;;;;;;20652314;28;20038;-82
2022/10/15 17:58:15;;;;;;;1.70;0.55;;;13.90;99.90;;;;;;20629781;28;20041;-81
2022/10/15 18:08:17;;;;;;;3.15;0.45;;;13.90;99.90;;;;;;20654888;28;20125;-82
2022/10/15 18:18:18;;;;;;;2.08;0.63;;;14.00;99.90;;;;;;20643199;28;20042;-82
2022/10/15 18:28:19;;;;;;;2.47;1.35;;;14.10;99.90;;;;;;20643446;28;20041;-82
2022/10/15 18:38:20;;;;;;;3.00;0.95;;;14.10;99.90;;;;;;20632380;28;20045;-81
2022/10/15 18:48:21;;;;;;;3.42;1.25;;;14.10;99.90;;;;;;20633390;28;20046;-83
2022/10/15 18:58:22;;;;;;;3.10;0.80;;;14.10;99.90;;;;;;20637334;28;20088;-82
2022/10/15 19:08:24;;;;;;;2.38;0.93;;;14.00;99.90;;;;;;20634824;28;20057;-82
2022/10/15 19:18:25;;;;;;;1.17;0.50;;;14.00;99.90;;;;;;20637174;28;20034;-81
2022/10/15 19:28:29;;;;;;;1.25;0.50;;;14.10;99.90;;;;;;20632310;28;20034;-82
2022/10/15 19:38:30;;;;;;;1.60;0.50;;;14.20;99.90;;;;;;20632845;28;20096;-82
2022/10/15 19:48:31;;;;;;;1.45;0.43;;;14.40;99.90;;;;;;20629226;28;20049;-81
2022/10/15 19:58:33;;;;;;;0.77;0.20;;;14.40;99.90;;;;;;20647170;28;20695;-81
2022/10/15 20:08:34;;;;;;;1.25;0.50;;;14.40;99.90;;;;;;20656229;28;20449;-82
2022/10/15 20:18:36;;;;;;;2.20;1.10;;;14.30;99.90;;;;;;20646677;28;20034;-82
2022/10/15 20:28:39;;;;;;;2.13;0.50;;;14.30;99.90;;;;;;20646026;28;20101;-82
2022/10/15 20:38:40;;;;;;;1.15;0.70;;;14.30;99.90;;;;;;20651594;28;20614;-82
2022/10/15 20:48:43;;;;;;;1.70;1.05;;;14.10;99.90;;;;;;20650944;28;20097;-82
2022/10/15 20:58:46;;;;;;;1.95;0.32;;;14.20;99.90;;;;;;20653102;28;20556;-83
2022/10/15 21:08:47;;;;;;;2.20;1.05;;;14.20;99.90;;;;;;20654803;28;20049;-83
2022/10/15 21:18:48;;;;;;;4.25;0.47;;;14.20;99.90;;;;;;20666867;28;20034;-82
2022/10/15 21:28:54;;;;;;;1.85;0.47;;;14.30;99.90;;;;;;20672504;28;20037;-82
2022/10/15 21:39:01;;;;;;;2.15;0.65;;;14.20;99.90;;;;;;20643845;28;20481;-81
2022/10/15 21:49:02;;;;;;;6.18;1.70;;;14.20;99.90;;;;;;20616005;28;20061;-83
2022/10/15 21:59:04;;;;;;;0.50;0.20;;;14.20;99.90;;;;;;20664039;28;20073;-83
2022/10/15 22:09:06;;;;;;;0.65;0.28;;;14.10;99.90;;;;;;20643544;28;20115;-82
2022/10/15 22:19:12;;;;;;;5.72;1.27;;;14.10;99.90;;;;;;20641390;28;20038;-82
2022/10/15 22:29:20;;;;;;;0.35;0.20;;;14.00;99.90;;;;;;20639414;28;20444;-82
2022/10/15 22:39:21;;;;;;;1.63;0.82;;;13.90;99.90;;;;;;20654579;28;20672;-82
2022/10/15 22:49:24;;;;;;;1.40;0.35;;;13.70;99.90;;;;;;20628836;28;20408;-82
2022/10/15 22:59:25;;;;;;;2.05;0.50;;;13.70;99.90;;;;;;20624425;28;20597;-82
2022/10/15 23:09:26;;;;;;;3.25;0.35;;;13.60;99.90;;;;;;20646477;28;20045;-82
2022/10/15 23:19:27;;;;;;;2.42;0.80;;;13.50;99.90;;;;;;20640400;28;20038;-81
2022/10/15 23:29:28;;;;;;;2.42;0.88;;;13.50;99.90;;;;;;20626739;28;20042;-82
2022/10/15 23:39:29;;;;;;;2.72;0.63;;;13.50;99.90;;;;;;20651631;28;20041;-81
2022/10/15 23:49:30;;;;;;;5.38;1.17;;;13.60;99.90;;;;;;20629628;28;20045;-82
2022/10/15 23:59:31;;;;;;;4.57;0.73;;;13.60;99.90;;;;;;20632350;28;213757;-81
